createdAt,value
2019-04-01T00:00:25.447Z,13.28
2019-04-01T00:01:25.346Z,13.23
2019-04-01T00:02:25.274Z,13.30
2019-04-01T00:03:25.212Z,13.30
2019-04-01T00:04:25.133Z,13.28
2019-04-01T00:05:25.071Z,13.32
2019-04-01T00:06:24.996Z,13.29
2019-04-01T00:07:24.916Z,13.38
2019-04-01T00:08:24.844Z,13.32
2019-04-01T00:09:24.787Z,13.28
2019-04-01T00:10:24.711Z,13.26
2019-04-01T00:11:24.643Z,13.25
2019-04-01T00:12:24.573Z,13.30
2019-04-01T00:13:24.489Z,13.28
2019-04-01T00:14:24.416Z,13.25
2019-04-01T00:15:24.352Z,13.28
2019-04-01T00:16:24.285Z,13.30
2019-04-01T00:17:24.198Z,13.19
2019-04-01T00:18:24.133Z,13.20
2019-04-01T00:19:24.060Z,13.19
2019-04-01T00:20:23.984Z,13.19
2019-04-01T00:21:23.921Z,13.17
2019-04-01T00:22:23.862Z,13.12
2019-04-01T00:23:23.769Z,13.19
2019-04-01T00:24:23.696Z,13.07
2019-04-01T00:25:23.643Z,13.08
2019-04-01T00:26:23.567Z,13.11
2019-04-01T00:27:23.496Z,13.11
2019-04-01T00:28:23.430Z,13.10
2019-04-01T00:29:23.341Z,12.95
2019-04-01T00:30:23.273Z,12.90
2019-04-01T00:31:23.199Z,12.75
2019-04-01T00:32:23.124Z,12.62
2019-04-01T00:33:23.066Z,12.62
2019-04-01T00:34:22.998Z,12.64
2019-04-01T00:35:22.927Z,12.65
2019-04-01T00:36:22.849Z,12.65
2019-04-01T00:37:22.772Z,12.65
2019-04-01T00:38:22.697Z,12.67
2019-04-01T00:39:22.634Z,12.77
2019-04-01T00:40:22.569Z,12.77
2019-04-01T00:41:22.481Z,12.74
2019-04-01T00:42:22.406Z,12.75
2019-04-01T00:43:22.338Z,12.74
2019-04-01T00:44:22.272Z,12.68
2019-04-01T00:45:22.205Z,12.70
2019-04-01T00:46:22.134Z,12.65
2019-04-01T00:47:22.064Z,12.77
2019-04-01T00:48:21.994Z,12.68
2019-04-01T00:49:21.906Z,12.62
2019-04-01T00:50:21.847Z,12.64
2019-04-01T00:51:21.758Z,12.70
2019-04-01T00:52:21.686Z,12.79
2019-04-01T00:53:21.636Z,12.85
2019-04-01T00:54:21.561Z,12.87
2019-04-01T00:55:21.476Z,12.89
2019-04-01T00:56:21.409Z,12.83
2019-04-01T00:57:21.354Z,12.85
2019-04-01T00:58:21.274Z,12.96
2019-04-01T00:59:21.201Z,13.00
2019-04-01T01:00:21.131Z,12.93
2019-04-01T01:01:21.041Z,12.97
2019-04-01T01:02:20.976Z,12.92
2019-04-01T01:03:20.901Z,12.97
2019-04-01T01:04:20.828Z,12.95
2019-04-01T01:05:20.770Z,13.01
2019-04-01T01:06:20.705Z,13.01
2019-04-01T01:07:20.626Z,12.82
2019-04-01T01:08:20.549Z,12.93
2019-04-01T01:09:20.469Z,12.89
2019-04-01T01:10:20.396Z,12.90
2019-04-01T01:11:20.332Z,12.86
2019-04-01T01:12:20.265Z,12.83
2019-04-01T01:13:20.184Z,12.95
2019-04-01T01:14:20.111Z,12.96
2019-04-01T01:15:20.038Z,13.05
2019-04-01T01:16:19.966Z,13.03
2019-04-01T01:17:19.906Z,13.07
2019-04-01T01:18:19.831Z,13.15
2019-04-01T01:19:19.746Z,13.11
2019-04-01T01:20:19.678Z,13.08
2019-04-01T01:21:19.621Z,13.12
2019-04-01T01:22:19.542Z,13.11
2019-04-01T01:23:19.547Z,12.92
2019-04-01T01:24:19.400Z,12.89
2019-04-01T01:25:19.315Z,12.93
2019-04-01T01:26:19.247Z,12.87
2019-04-01T01:27:19.190Z,12.77
2019-04-01T01:28:19.150Z,12.74
2019-04-01T01:29:19.037Z,12.68
2019-04-01T01:30:18.957Z,12.78
2019-04-01T01:31:18.889Z,12.70
2019-04-01T01:32:18.818Z,12.85
2019-04-01T01:33:18.753Z,12.86
2019-04-01T01:34:18.686Z,12.82
2019-04-01T01:35:18.611Z,12.86
2019-04-01T01:36:18.545Z,12.87
2019-04-01T01:37:18.453Z,12.86
2019-04-01T01:38:18.386Z,12.93
2019-04-01T01:39:18.317Z,12.86
2019-04-01T01:40:18.248Z,12.85
2019-04-01T01:41:18.180Z,12.78
2019-04-01T01:42:18.111Z,12.74
2019-04-01T01:43:18.028Z,12.75
2019-04-01T01:44:17.954Z,12.74
2019-04-01T01:45:17.892Z,12.72
2019-04-01T01:46:17.819Z,12.75
2019-04-01T01:47:17.754Z,12.64
2019-04-01T01:48:17.693Z,12.64
2019-04-01T01:49:17.597Z,12.62
2019-04-01T01:50:17.519Z,12.62
2019-04-01T01:51:17.447Z,12.64
2019-04-01T01:52:17.380Z,12.70
2019-04-01T01:53:17.318Z,12.78
2019-04-01T01:54:17.290Z,12.65
2019-04-01T01:55:17.178Z,12.70
2019-04-01T01:56:17.104Z,12.71
2019-04-01T01:57:17.018Z,12.77
2019-04-01T01:58:16.948Z,12.75
2019-04-01T01:59:16.894Z,12.89
2019-04-01T02:00:16.899Z,12.82
2019-04-01T02:01:16.738Z,12.87
2019-04-01T02:02:16.659Z,12.82
2019-04-01T02:03:16.590Z,12.89
2019-04-01T02:04:16.516Z,12.79
2019-04-01T02:05:16.457Z,12.77
2019-04-01T02:06:16.386Z,12.89
2019-04-01T02:07:16.314Z,12.86
2019-04-01T02:08:16.238Z,12.82
2019-04-01T02:09:16.155Z,12.71
2019-04-01T02:10:16.083Z,12.72
2019-04-01T02:11:16.013Z,12.62
2019-04-01T02:12:15.941Z,12.57
2019-04-01T02:13:15.878Z,12.60
2019-04-01T02:14:15.808Z,12.60
2019-04-01T02:15:15.725Z,12.67
2019-04-01T02:16:15.654Z,12.62
2019-04-01T02:17:15.592Z,12.62
2019-04-01T02:18:15.523Z,12.64
2019-04-01T02:19:15.445Z,12.56
2019-04-01T02:20:15.381Z,12.67
2019-04-01T02:21:15.291Z,12.67
2019-04-01T02:22:15.244Z,12.70
2019-04-01T02:23:15.164Z,12.75
2019-04-01T02:24:15.086Z,12.78
2019-04-01T02:25:15.008Z,12.79
2019-04-01T02:26:14.934Z,12.87
2019-04-01T02:27:14.863Z,12.93
2019-04-01T02:28:14.791Z,12.97
2019-04-01T02:29:14.728Z,12.93
2019-04-01T02:30:14.665Z,12.97
2019-04-01T02:31:14.573Z,13.00
2019-04-01T02:32:14.499Z,12.97
2019-04-01T02:33:14.450Z,12.90
2019-04-01T02:34:14.375Z,13.04
2019-04-01T02:35:14.302Z,12.97
2019-04-01T02:36:14.232Z,12.93
2019-04-01T02:37:14.145Z,12.92
2019-04-01T02:38:14.068Z,12.96
2019-04-01T02:39:13.996Z,12.97
2019-04-01T02:40:13.928Z,12.93
2019-04-01T02:41:13.870Z,12.82
2019-04-01T02:42:13.799Z,12.93
2019-04-01T02:43:13.737Z,12.93
2019-04-01T02:44:13.650Z,12.89
2019-04-01T02:45:13.568Z,12.86
2019-04-01T02:46:13.498Z,12.87
2019-04-01T02:47:13.437Z,12.86
2019-04-01T02:48:13.367Z,12.79
2019-04-01T02:49:13.280Z,12.79
2019-04-01T02:50:13.208Z,12.70
2019-04-01T02:51:13.134Z,12.74
2019-04-01T02:52:13.063Z,12.78
2019-04-01T02:53:13.002Z,12.77
2019-04-01T02:54:12.945Z,12.72
2019-04-01T02:55:12.852Z,12.77
2019-04-01T02:56:12.780Z,12.75
2019-04-01T02:57:12.734Z,12.77
2019-04-01T02:58:12.648Z,12.74
2019-04-01T02:59:12.575Z,12.82
2019-04-01T03:00:12.500Z,12.75
2019-04-01T03:01:12.415Z,12.62
2019-04-01T03:02:12.352Z,12.62
2019-04-01T03:03:12.287Z,12.62
2019-04-01T03:04:12.227Z,12.74
2019-04-01T03:05:12.135Z,12.77
2019-04-01T03:06:12.063Z,12.79
2019-04-01T03:07:11.990Z,12.79
2019-04-01T03:08:11.918Z,12.74
2019-04-01T03:09:11.856Z,12.65
2019-04-01T03:10:11.782Z,12.70
2019-04-01T03:11:11.714Z,12.74
2019-04-01T03:12:11.650Z,12.82
2019-04-01T03:13:11.590Z,12.85
2019-04-01T03:14:11.487Z,12.90
2019-04-01T03:15:11.420Z,12.90
2019-04-01T03:16:11.341Z,12.93
2019-04-01T03:17:11.281Z,13.04
2019-04-01T03:18:11.208Z,13.10
2019-04-01T03:19:11.127Z,13.11
2019-04-01T03:20:11.064Z,13.05
2019-04-01T03:21:11.018Z,13.08
2019-04-01T03:22:10.922Z,13.11
2019-04-01T03:23:10.854Z,13.12
2019-04-01T03:24:10.783Z,13.11
2019-04-01T03:25:10.695Z,13.10
2019-04-01T03:26:10.659Z,13.07
2019-04-01T03:27:10.565Z,13.08
2019-04-01T03:28:10.497Z,13.19
2019-04-01T03:29:10.407Z,13.20
2019-04-01T03:30:10.337Z,13.11
2019-04-01T03:31:10.280Z,13.11
2019-04-01T03:32:10.206Z,13.10
2019-04-01T03:33:10.136Z,13.22
2019-04-01T03:34:10.083Z,13.07
2019-04-01T03:35:09.980Z,13.11
2019-04-01T03:36:09.906Z,13.07
2019-04-01T03:37:09.843Z,13.07
2019-04-01T03:38:09.770Z,13.11
2019-04-01T03:39:09.704Z,13.07
2019-04-01T03:40:09.632Z,13.11
2019-04-01T03:41:09.547Z,13.05
2019-04-01T03:42:09.477Z,12.97
2019-04-01T03:43:09.406Z,12.90
2019-04-01T03:44:09.333Z,12.87
2019-04-01T03:45:09.277Z,12.86
2019-04-01T03:46:09.208Z,12.86
2019-04-01T03:47:09.129Z,12.77
2019-04-01T03:48:15.706Z,12.74
2019-04-01T03:49:09.007Z,12.70
2019-04-01T03:50:08.915Z,12.60
2019-04-01T03:51:08.848Z,12.64
2019-04-01T03:52:10.404Z,12.72
2019-04-01T03:53:08.696Z,12.60
2019-04-01T03:54:08.616Z,12.64
2019-04-01T03:55:08.566Z,12.64
2019-04-01T03:56:08.490Z,12.70
2019-04-01T03:57:08.410Z,12.65
2019-04-01T03:58:08.339Z,12.64
2019-04-01T03:59:08.273Z,12.64
2019-04-01T04:00:08.190Z,12.65
2019-04-01T04:01:08.108Z,12.60
2019-04-01T04:02:08.037Z,12.68
2019-04-01T04:03:07.970Z,12.75
2019-04-01T04:04:07.906Z,12.71
2019-04-01T04:05:07.884Z,12.68
2019-04-01T04:06:07.755Z,12.70
2019-04-01T04:07:07.684Z,12.65
2019-04-01T04:08:07.624Z,12.62
2019-04-01T04:09:07.554Z,12.60
2019-04-01T04:10:07.473Z,12.62
2019-04-01T04:11:07.411Z,12.65
2019-04-01T04:12:07.318Z,12.54
2019-04-01T04:13:07.246Z,12.56
2019-04-01T04:14:07.177Z,12.53
2019-04-01T04:15:07.103Z,12.53
2019-04-01T04:16:07.048Z,12.52
2019-04-01T04:17:06.983Z,12.57
2019-04-01T04:18:06.902Z,12.57
2019-04-01T04:19:06.836Z,12.56
2019-04-01T04:20:06.742Z,12.57
2019-04-01T04:21:06.676Z,12.56
2019-04-01T04:22:06.616Z,12.50
2019-04-01T04:23:06.549Z,12.56
2019-04-01T04:24:06.459Z,12.60
2019-04-01T04:25:06.388Z,12.56
2019-04-01T04:26:06.450Z,12.52
2019-04-01T04:27:10.736Z,12.52
2019-04-01T04:28:06.178Z,12.56
2019-04-01T04:29:06.107Z,12.53
2019-04-01T04:30:06.025Z,12.53
2019-04-01T04:31:05.947Z,12.56
2019-04-01T04:32:05.894Z,12.52
2019-04-01T04:33:05.821Z,12.52
2019-04-01T04:34:05.747Z,12.50
2019-04-01T04:35:05.673Z,12.52
2019-04-01T04:36:05.594Z,12.53
2019-04-01T04:37:05.525Z,12.59
2019-04-01T04:38:05.461Z,12.64
2019-04-01T04:39:05.385Z,12.52
2019-04-01T04:40:05.347Z,12.53
2019-04-01T04:41:05.266Z,12.64
2019-04-01T04:42:05.164Z,12.64
2019-04-01T04:43:05.087Z,12.75
2019-04-01T04:44:05.026Z,12.72
2019-04-01T04:45:04.957Z,12.74
2019-04-01T04:46:04.901Z,12.78
2019-04-01T04:47:04.815Z,12.72
2019-04-01T04:48:04.728Z,12.74
2019-04-01T04:49:04.657Z,12.74
2019-04-01T04:50:04.583Z,12.78
2019-04-01T04:51:04.511Z,12.72
2019-04-01T04:52:04.805Z,12.77
2019-04-01T04:53:04.380Z,12.65
2019-04-01T04:54:04.295Z,12.64
2019-04-01T04:55:04.250Z,12.54
2019-04-01T04:56:04.164Z,12.54
2019-04-01T04:57:04.090Z,12.52
2019-04-01T04:58:04.020Z,12.54
2019-04-01T04:59:03.962Z,12.59
2019-04-01T05:00:03.863Z,12.62
2019-04-01T05:01:03.811Z,12.67
2019-04-01T05:02:03.731Z,12.64
2019-04-01T05:03:03.649Z,12.67
2019-04-01T05:04:03.593Z,12.60
2019-04-01T05:05:03.542Z,12.65
2019-04-01T05:06:03.445Z,12.53
2019-04-01T05:07:03.372Z,12.54
2019-04-01T05:08:03.293Z,12.49
2019-04-01T05:09:03.217Z,12.59
2019-04-01T05:10:03.159Z,12.49
2019-04-01T05:11:03.083Z,12.46
2019-04-01T05:12:02.999Z,12.53
2019-04-01T05:13:02.925Z,12.45
2019-04-01T05:14:02.853Z,12.57
2019-04-01T05:15:02.781Z,12.60
2019-04-01T05:16:02.720Z,12.68
2019-04-01T05:17:02.648Z,12.74
2019-04-01T05:18:02.583Z,12.70
2019-04-01T05:19:02.509Z,12.71
2019-04-01T05:20:02.425Z,12.72
2019-04-01T05:21:02.353Z,12.77
2019-04-01T05:22:02.278Z,12.82
2019-04-01T05:23:02.207Z,12.89
2019-04-01T05:24:02.147Z,12.87
2019-04-01T05:25:02.081Z,12.92
2019-04-01T05:26:02.017Z,12.90
2019-04-01T05:27:01.919Z,12.78
2019-04-01T05:28:01.864Z,12.83
2019-04-01T05:29:01.788Z,12.82
2019-04-01T05:30:01.728Z,12.86
2019-04-01T05:31:01.644Z,12.89
2019-04-01T05:32:01.564Z,12.95
2019-04-01T05:33:01.492Z,13.00
2019-04-01T05:34:01.433Z,13.01
2019-04-01T05:35:01.362Z,12.90
2019-04-01T05:36:01.277Z,12.90
2019-04-01T05:37:01.201Z,12.79
2019-04-01T05:38:01.129Z,12.86
2019-04-01T05:39:01.056Z,12.77
2019-04-01T05:40:00.997Z,12.72
2019-04-01T05:41:00.921Z,12.59
2019-04-01T05:42:00.842Z,12.52
2019-04-01T05:43:00.775Z,12.57
2019-04-01T05:44:02.228Z,12.46
2019-04-01T05:45:00.640Z,12.38
2019-04-01T05:46:00.568Z,12.47
2019-04-01T05:47:00.498Z,12.54
2019-04-01T05:48:00.413Z,12.57
2019-04-01T05:49:00.338Z,12.54
2019-04-01T05:50:00.352Z,12.60
2019-04-01T05:51:00.196Z,12.65
2019-04-01T05:52:00.133Z,12.62
2019-04-01T05:53:00.066Z,12.65
2019-04-01T05:53:59.992Z,12.67
2019-04-01T05:54:59.924Z,12.65
2019-04-01T05:55:59.841Z,12.64
2019-04-01T05:56:59.775Z,12.74
2019-04-01T05:57:59.710Z,12.74
2019-04-01T05:58:59.635Z,12.89
2019-04-01T05:59:59.547Z,12.87
2019-04-01T06:00:59.473Z,12.83
2019-04-01T06:01:59.409Z,12.96
2019-04-01T06:02:59.338Z,13.08
2019-04-01T06:03:59.274Z,12.93
2019-04-01T06:04:59.203Z,12.97
2019-04-01T06:05:59.127Z,13.07
2019-04-01T06:06:59.063Z,13.10
2019-04-01T06:07:58.977Z,13.08
2019-04-01T06:08:58.905Z,13.12
2019-04-01T06:09:58.833Z,13.08
2019-04-01T06:10:58.763Z,13.10
2019-04-01T06:11:58.699Z,13.07
2019-04-01T06:12:58.628Z,13.11
2019-04-01T06:13:58.547Z,13.07
2019-04-01T06:14:58.469Z,13.12
2019-04-01T06:15:58.416Z,13.10
2019-04-01T06:16:58.347Z,13.17
2019-04-01T06:17:58.269Z,13.08
2019-04-01T06:18:58.200Z,13.10
2019-04-01T06:19:58.115Z,13.07
2019-04-01T06:20:58.042Z,13.08
2019-04-01T06:21:57.993Z,13.08
2019-04-01T06:22:57.902Z,13.10
2019-04-01T06:23:57.846Z,13.14
2019-04-01T06:24:57.770Z,13.23
2019-04-01T06:25:57.696Z,13.17
2019-04-01T06:26:57.625Z,13.20
2019-04-01T06:27:57.551Z,13.14
2019-04-01T06:28:57.471Z,13.15
2019-04-01T06:29:59.230Z,13.15
2019-04-01T06:30:57.344Z,13.11
2019-04-01T06:31:57.264Z,13.07
2019-04-01T06:32:57.183Z,13.08
2019-04-01T06:33:57.116Z,13.14
2019-04-01T06:34:57.041Z,13.14
2019-04-01T06:35:56.987Z,13.10
2019-04-01T06:36:56.920Z,13.11
2019-04-01T06:37:56.898Z,13.10
2019-04-01T06:38:56.755Z,13.05
2019-04-01T06:39:56.692Z,12.95
2019-04-01T06:40:56.636Z,12.95
2019-04-01T06:41:56.552Z,13.00
2019-04-01T06:42:56.481Z,12.96
2019-04-01T06:43:56.399Z,12.89
2019-04-01T06:44:56.327Z,12.92
2019-04-01T06:45:56.266Z,12.92
2019-04-01T06:46:56.198Z,12.96
2019-04-01T06:47:56.113Z,12.83
2019-04-01T06:48:56.041Z,12.79
2019-04-01T06:49:55.967Z,12.83
2019-04-01T06:50:55.897Z,12.82
2019-04-01T06:51:55.835Z,12.86
2019-04-01T06:52:55.771Z,12.92
2019-04-01T06:53:55.693Z,12.86
2019-04-01T06:54:55.623Z,12.86
2019-04-01T06:55:55.539Z,12.87
2019-04-01T06:56:55.465Z,12.75
2019-04-01T06:57:55.398Z,12.70
2019-04-01T06:58:55.327Z,12.71
2019-04-01T06:59:55.268Z,12.74
2019-04-01T07:00:55.196Z,12.77
2019-04-01T07:01:55.107Z,12.87
2019-04-01T07:02:55.092Z,12.86
2019-04-01T07:03:54.979Z,12.95
2019-04-01T07:04:54.909Z,12.90
2019-04-01T07:05:54.840Z,12.97
2019-04-01T07:06:54.765Z,13.12
2019-04-01T07:07:54.683Z,13.11
2019-04-01T07:08:54.617Z,13.12
2019-04-01T07:09:54.561Z,13.17
2019-04-01T07:10:54.482Z,13.19
2019-04-01T07:11:54.402Z,13.23
2019-04-01T07:12:54.326Z,13.10
2019-04-01T07:13:54.263Z,13.17
2019-04-01T07:14:54.184Z,13.12
2019-04-01T07:15:54.124Z,13.25
2019-04-01T07:16:54.050Z,13.14
2019-04-01T07:17:53.967Z,13.05
2019-04-01T07:18:53.898Z,13.07
2019-04-01T07:19:53.839Z,12.96
2019-04-01T07:20:53.769Z,12.90
2019-04-01T07:21:54.584Z,12.89
2019-04-01T07:22:53.622Z,12.82
2019-04-01T07:23:53.542Z,12.82
2019-04-01T07:24:53.463Z,12.79
2019-04-01T07:25:53.401Z,12.78
2019-04-01T07:26:53.327Z,12.86
2019-04-01T07:27:53.265Z,12.79
2019-04-01T07:28:53.197Z,12.77
2019-04-01T07:29:53.117Z,12.83
2019-04-01T07:30:53.047Z,12.82
2019-04-01T07:31:52.969Z,12.87
2019-04-01T07:32:52.895Z,12.86
2019-04-01T07:33:52.836Z,12.86
2019-04-01T07:34:52.760Z,12.85
2019-04-01T07:35:52.677Z,12.77
2019-04-01T07:36:52.609Z,12.74
2019-04-01T07:37:52.531Z,12.77
2019-04-01T07:38:52.471Z,12.72
2019-04-01T07:39:52.441Z,12.78
2019-04-01T07:40:52.338Z,12.75
2019-04-01T07:41:52.246Z,12.85
2019-04-01T07:42:52.354Z,12.87
2019-04-01T07:43:52.174Z,12.93
2019-04-01T07:44:52.050Z,12.86
2019-04-01T07:45:51.974Z,12.89
2019-04-01T07:46:51.899Z,12.92
2019-04-01T07:47:51.876Z,12.92
2019-04-01T07:48:51.750Z,12.85
2019-04-01T07:49:51.787Z,12.95
2019-04-01T07:50:51.621Z,12.96
2019-04-01T07:51:51.536Z,13.00
2019-04-01T07:52:51.464Z,12.93
2019-04-01T07:53:51.430Z,12.95
2019-04-01T07:54:51.322Z,13.00
2019-04-01T07:55:51.259Z,12.97
2019-04-01T07:56:51.187Z,12.95
2019-04-01T07:57:51.135Z,13.10
2019-04-01T07:58:51.048Z,13.05
2019-04-01T07:59:50.961Z,13.08
2019-04-01T08:00:50.890Z,13.19
2019-04-01T08:01:52.798Z,13.22
2019-04-01T08:02:50.744Z,13.11
2019-04-01T08:03:50.687Z,13.08
2019-04-01T08:04:50.615Z,13.11
2019-04-01T08:05:50.538Z,13.22
2019-04-01T08:06:50.467Z,13.23
2019-04-01T08:07:50.399Z,13.32
2019-04-01T08:08:50.337Z,13.36
2019-04-01T08:09:50.259Z,13.45
2019-04-01T08:10:50.195Z,13.48
2019-04-01T08:11:50.366Z,13.48
2019-04-01T08:12:50.034Z,13.51
2019-04-01T08:13:49.967Z,13.54
2019-04-01T08:14:49.893Z,13.57
2019-04-01T08:15:49.834Z,13.62
2019-04-01T08:16:49.764Z,13.71
2019-04-01T08:17:49.696Z,13.79
2019-04-01T08:18:49.624Z,13.87
2019-04-01T08:19:49.541Z,13.82
2019-04-01T08:20:49.465Z,13.85
2019-04-01T08:21:52.210Z,13.95
2019-04-01T08:22:49.335Z,14.00
2019-04-01T08:23:49.265Z,14.06
2019-04-01T08:24:49.182Z,14.17
2019-04-01T08:25:49.110Z,14.17
2019-04-01T08:26:49.042Z,14.18
2019-04-01T08:27:48.983Z,14.18
2019-04-01T08:28:48.913Z,14.18
2019-04-01T08:29:48.842Z,14.17
2019-04-01T08:30:48.770Z,14.21
2019-04-01T08:31:48.689Z,14.24
2019-04-01T08:32:48.617Z,14.28
2019-04-01T08:33:50.305Z,14.18
2019-04-01T08:34:48.506Z,14.28
2019-04-01T08:35:48.420Z,14.21
2019-04-01T08:36:48.350Z,14.22
2019-04-01T08:37:48.273Z,14.21
2019-04-01T08:38:48.199Z,14.21
2019-04-01T08:39:48.144Z,14.24
2019-04-01T08:40:48.063Z,14.18
2019-04-01T08:41:47.998Z,14.24
2019-04-01T08:42:49.089Z,14.29
2019-04-01T08:43:47.848Z,14.29
2019-04-01T08:44:47.774Z,14.24
2019-04-01T08:45:47.718Z,14.21
2019-04-01T08:46:47.644Z,14.28
2019-04-01T08:47:47.566Z,14.22
2019-04-01T08:48:47.494Z,14.06
2019-04-01T08:49:47.424Z,14.03
2019-04-01T08:50:47.367Z,14.14
2019-04-01T08:51:47.296Z,14.20
2019-04-01T08:52:47.318Z,14.10
2019-04-01T08:53:47.142Z,14.15
2019-04-01T08:54:47.072Z,14.12
2019-04-01T08:55:47.013Z,14.12
2019-04-01T08:56:46.943Z,14.21
2019-04-01T08:57:46.873Z,14.32
2019-04-01T08:58:46.811Z,14.32
2019-04-01T08:59:46.720Z,14.32
2019-04-01T09:00:46.655Z,14.42
2019-04-01T09:01:46.582Z,14.43
2019-04-01T09:02:46.515Z,14.39
2019-04-01T09:03:46.465Z,14.43
2019-04-01T09:04:46.387Z,14.46
2019-04-01T09:05:46.353Z,14.45
2019-04-01T09:06:46.250Z,14.57
2019-04-01T09:07:46.160Z,14.46
2019-04-01T09:08:46.092Z,14.58
2019-04-01T09:09:46.037Z,14.61
2019-04-01T09:10:45.969Z,14.68
2019-04-01T09:11:45.887Z,14.68
2019-04-01T09:12:45.816Z,14.62
2019-04-01T09:13:45.748Z,14.75
2019-04-01T09:14:45.686Z,14.73
2019-04-01T09:15:45.621Z,14.69
2019-04-01T09:16:45.550Z,14.88
2019-04-01T09:17:45.479Z,14.80
2019-04-01T09:18:45.411Z,14.91
2019-04-01T09:19:45.325Z,14.89
2019-04-01T09:20:45.254Z,14.95
2019-04-01T09:21:45.188Z,14.98
2019-04-01T09:22:45.116Z,14.99
2019-04-01T09:23:45.066Z,14.94
2019-04-01T09:24:44.993Z,14.92
2019-04-01T09:25:44.910Z,15.07
2019-04-01T09:26:44.854Z,15.07
2019-04-01T09:27:44.785Z,15.07
2019-04-01T09:28:44.713Z,15.02
2019-04-01T09:29:44.640Z,14.95
2019-04-01T09:30:44.576Z,14.86
2019-04-01T09:31:44.497Z,14.88
2019-04-01T09:32:44.424Z,14.84
2019-04-01T09:33:44.352Z,14.81
2019-04-01T09:34:44.290Z,14.88
2019-04-01T09:35:44.235Z,14.88
2019-04-01T09:36:44.160Z,14.86
2019-04-01T09:37:44.092Z,14.81
2019-04-01T09:38:44.023Z,14.83
2019-04-01T09:39:43.938Z,14.83
2019-04-01T09:40:43.871Z,14.88
2019-04-01T09:41:43.870Z,14.91
2019-04-01T09:42:43.784Z,14.91
2019-04-01T09:43:43.666Z,14.94
2019-04-01T09:44:43.594Z,14.96
2019-04-01T09:45:43.520Z,14.80
2019-04-01T09:46:43.456Z,14.84
2019-04-01T09:47:43.401Z,14.75
2019-04-01T09:48:43.328Z,14.77
2019-04-01T09:49:43.246Z,14.70
2019-04-01T09:50:43.180Z,14.78
2019-04-01T09:51:48.939Z,14.73
2019-04-01T09:52:43.049Z,14.70
2019-04-01T09:53:42.980Z,14.77
2019-04-01T09:54:42.907Z,14.65
2019-04-01T09:55:42.826Z,14.62
2019-04-01T09:56:42.758Z,14.58
2019-04-01T09:57:42.741Z,14.60
2019-04-01T09:58:42.636Z,14.58
2019-04-01T09:59:42.548Z,14.47
2019-04-01T10:00:42.481Z,14.50
2019-04-01T10:01:42.410Z,14.58
2019-04-01T10:02:42.342Z,14.65
2019-04-01T10:03:42.286Z,14.78
2019-04-01T10:04:42.211Z,14.83
2019-04-01T10:05:42.165Z,14.78
2019-04-01T10:06:42.074Z,14.80
2019-04-01T10:07:42.080Z,14.92
2019-04-01T10:08:42.909Z,14.86
2019-04-01T10:09:41.860Z,14.91
2019-04-01T10:10:41.790Z,14.94
2019-04-01T10:11:41.739Z,14.94
2019-04-01T10:12:41.681Z,14.96
2019-04-01T10:13:41.576Z,14.88
2019-04-01T10:14:41.509Z,14.81
2019-04-01T10:15:41.470Z,14.75
2019-04-01T10:16:41.379Z,14.91
2019-04-01T10:17:41.319Z,14.84
2019-04-01T10:18:41.263Z,14.84
2019-04-01T10:19:41.160Z,14.89
2019-04-01T10:20:41.096Z,14.96
2019-04-01T10:21:41.035Z,14.92
2019-04-01T10:22:40.950Z,14.94
2019-04-01T10:23:40.890Z,14.89
2019-04-01T10:24:40.826Z,15.09
2019-04-01T10:25:40.756Z,15.07
2019-04-01T10:26:40.686Z,15.17
2019-04-01T10:27:40.603Z,15.20
2019-04-01T10:28:40.535Z,15.25
2019-04-01T10:29:40.481Z,15.32
2019-04-01T10:30:40.413Z,15.35
2019-04-01T10:31:40.332Z,15.51
2019-04-01T10:32:40.266Z,15.56
2019-04-01T10:33:40.192Z,15.65
2019-04-01T10:34:40.123Z,15.64
2019-04-01T10:35:40.065Z,15.62
2019-04-01T10:36:39.992Z,15.59
2019-04-01T10:37:39.929Z,15.59
2019-04-01T10:38:39.859Z,15.56
2019-04-01T10:39:39.805Z,15.65
2019-04-01T10:40:39.751Z,15.71
2019-04-01T10:41:39.639Z,15.53
2019-04-01T10:42:39.567Z,15.38
2019-04-01T10:43:39.514Z,15.39
2019-04-01T10:44:39.448Z,15.36
2019-04-01T10:45:39.368Z,15.29
2019-04-01T10:46:40.844Z,15.34
2019-04-01T10:47:39.348Z,15.21
2019-04-01T10:48:39.206Z,15.34
2019-04-01T10:49:39.133Z,15.41
2019-04-01T10:50:39.053Z,15.41
2019-04-01T10:51:39.012Z,15.35
2019-04-01T10:52:39.186Z,15.35
2019-04-01T10:53:38.882Z,15.47
2019-04-01T10:54:38.804Z,15.53
2019-04-01T10:55:38.706Z,15.50
2019-04-01T10:56:38.649Z,15.47
2019-04-01T10:57:38.673Z,15.44
2019-04-01T10:58:38.490Z,15.32
2019-04-01T10:59:38.406Z,15.36
2019-04-01T11:00:38.355Z,15.35
2019-04-01T11:01:38.270Z,15.32
2019-04-01T11:02:38.248Z,15.31
2019-04-01T11:03:38.206Z,15.27
2019-04-01T11:04:38.166Z,15.20
2019-04-01T11:05:38.021Z,15.19
2019-04-01T11:06:37.978Z,15.17
2019-04-01T11:07:37.961Z,15.20
2019-04-01T11:08:37.774Z,15.17
2019-04-01T11:09:38.852Z,15.14
2019-04-01T11:10:37.637Z,15.10
2019-04-01T11:11:37.582Z,15.06
2019-04-01T11:12:37.515Z,15.09
2019-04-01T11:13:37.449Z,15.09
2019-04-01T11:14:37.372Z,15.01
2019-04-01T11:15:37.290Z,15.01
2019-04-01T11:16:37.218Z,15.07
2019-04-01T11:17:37.166Z,15.02
2019-04-01T11:18:37.097Z,15.10
2019-04-01T11:19:37.010Z,15.19
2019-04-01T11:20:37.138Z,15.13
2019-04-01T11:21:36.885Z,15.20
2019-04-01T11:22:36.806Z,15.11
2019-04-01T11:23:36.746Z,15.09
2019-04-01T11:24:36.677Z,15.21
2019-04-01T11:25:36.595Z,15.09
2019-04-01T11:26:36.779Z,15.23
2019-04-01T11:27:36.466Z,15.17
2019-04-01T11:28:36.394Z,15.21
2019-04-01T11:29:36.328Z,15.20
2019-04-01T11:30:37.092Z,15.09
2019-04-01T11:31:36.275Z,15.16
2019-04-01T11:32:36.115Z,15.20
2019-04-01T11:33:36.088Z,15.16
2019-04-01T11:34:35.993Z,15.19
2019-04-01T11:35:35.934Z,15.19
2019-04-01T11:36:35.836Z,15.19
2019-04-01T11:37:35.794Z,15.17
2019-04-01T11:38:35.687Z,15.32
2019-04-01T11:39:36.323Z,15.31
2019-04-01T11:40:38.622Z,15.36
2019-04-01T11:41:35.496Z,15.36
2019-04-01T11:42:35.439Z,15.28
2019-04-01T11:43:35.812Z,15.16
2019-04-01T11:44:35.266Z,15.16
2019-04-01T11:45:35.229Z,15.14
2019-04-01T11:46:35.169Z,15.13
2019-04-01T11:47:35.072Z,15.19
2019-04-01T11:48:35.003Z,15.20
2019-04-01T11:49:34.948Z,15.16
2019-04-01T11:50:34.869Z,15.17
2019-04-01T11:51:39.585Z,15.25
2019-04-01T11:52:34.756Z,15.23
2019-04-01T11:53:34.654Z,15.36
2019-04-01T11:54:34.585Z,15.43
2019-04-01T11:55:34.502Z,15.49
2019-04-01T11:56:34.433Z,15.43
2019-04-01T11:57:34.370Z,15.56
2019-04-01T11:58:34.308Z,15.50
2019-04-01T11:59:34.234Z,15.51
2019-04-01T12:00:34.154Z,15.54
2019-04-01T12:01:36.688Z,15.54
2019-04-01T12:02:34.016Z,15.64
2019-04-01T12:03:33.961Z,15.54
2019-04-01T12:04:33.888Z,15.60
2019-04-01T12:05:33.808Z,15.69
2019-04-01T12:06:33.738Z,15.74
2019-04-01T12:07:33.684Z,15.82
2019-04-01T12:08:33.606Z,15.94
2019-04-01T12:09:33.543Z,15.90
2019-04-01T12:10:33.474Z,15.89
2019-04-01T12:11:33.392Z,15.82
2019-04-01T12:12:33.323Z,15.87
2019-04-01T12:13:33.253Z,15.83
2019-04-01T12:14:33.184Z,15.74
2019-04-01T12:15:33.130Z,15.71
2019-04-01T12:16:33.061Z,15.72
2019-04-01T12:17:32.988Z,15.65
2019-04-01T12:18:32.920Z,15.74
2019-04-01T12:19:32.844Z,15.67
2019-04-01T12:20:32.764Z,15.75
2019-04-01T12:21:32.714Z,15.84
2019-04-01T12:22:32.645Z,15.82
2019-04-01T12:23:32.562Z,16.00
2019-04-01T12:24:32.493Z,16.08
2019-04-01T12:25:32.420Z,16.02
2019-04-01T12:26:32.355Z,15.97
2019-04-01T12:27:32.302Z,16.04
2019-04-01T12:28:32.229Z,16.11
2019-04-01T12:29:32.162Z,16.04
2019-04-01T12:30:32.098Z,16.04
2019-04-01T12:31:32.008Z,15.94
2019-04-01T12:32:31.943Z,15.90
2019-04-01T12:33:31.876Z,15.82
2019-04-01T12:34:31.807Z,15.86
2019-04-01T12:35:31.755Z,15.82
2019-04-01T12:36:31.680Z,15.97
2019-04-01T12:37:31.598Z,16.07
2019-04-01T12:38:31.533Z,16.01
2019-04-01T12:39:31.472Z,16.11
2019-04-01T12:40:31.403Z,16.09
2019-04-01T12:41:31.337Z,16.12
2019-04-01T12:42:31.268Z,16.23
2019-04-01T12:43:31.188Z,16.15
2019-04-01T12:44:31.121Z,16.15
2019-04-01T12:45:31.048Z,16.15
2019-04-01T12:46:30.987Z,16.17
2019-04-01T12:47:30.926Z,16.20
2019-04-01T12:48:30.852Z,16.15
2019-04-01T12:49:30.805Z,16.04
2019-04-01T12:50:30.718Z,16.01
2019-04-01T12:51:30.637Z,16.01